KGLR/GLR METAR and TAF weather

Enter ICAO airport designator
Station Type Date Time Source
KGLR METAR 2020/01/18 12:53 UTC NOAA

KGLR 181253Z AUTO 13015G23KT 1/2SM SN FZFG VV009 M06/M07 A2986 RMK AO2 SLP135 P0001 T10561072


Station Type Date Time Source
KGLR Decoded METAR 2020/01/18 12:53 UTC NOAA

GAYLORD REGIONAL AIRPORT, MI, United States (KGLR) 45-01N 84-41W 407M
Jan 18, 2020 - 07:53 AM EST / 2020.01.18 1253 UTC
Wind: from the SE (130 degrees) at 17 MPH (15 KT) gusting to 26 MPH (23 KT):0
Visibility: 1/2 mile(s):0
Sky conditions: obscured
Weather: snow; freezing fog
Precipitation last hour: 0.01 inches
Temperature: 21.9 F (-5.6 C)
Windchill: 8 F (-13 C):1
Dew Point: 19.0 F (-7.2 C)
Relative Humidity: 88%
Pressure (altimeter): 29.86 in. Hg (1011 hPa)
ob: KGLR 181253Z AUTO 13015G23KT 1/2SM SN FZFG VV009 M06/M07 A2986 RMK AO2 SLP135 P0001 T10561072
cycle: 13

Station Type Date Time Source
KGLR TAF UTC NOAA

Error!

Example: see airport list